createdAt,value
2023-07-06T00:00:43.580Z,2.70
2023-07-06T00:03:15.741Z,3.08
2023-07-06T00:05:46.105Z,2.60
2023-07-06T00:08:14.253Z,2.50
2023-07-06T00:10:42.285Z,2.67
2023-07-06T00:13:10.681Z,2.60
2023-07-06T00:15:38.619Z,2.33
2023-07-06T00:18:06.698Z,2.47
2023-07-06T00:20:38.473Z,2.40
2023-07-06T00:23:06.604Z,2.45
2023-07-06T00:25:35.310Z,2.47
2023-07-06T00:28:04.148Z,2.15
2023-07-06T00:30:42.279Z,2.72
2023-07-06T00:33:11.020Z,2.53
2023-07-06T00:35:41.614Z,2.53
2023-07-06T00:38:11.562Z,2.65
2023-07-06T00:40:40.154Z,2.25
2023-07-06T00:43:10.610Z,2.85
2023-07-06T00:45:38.715Z,2.70
2023-07-06T00:48:07.642Z,2.40
2023-07-06T00:50:36.615Z,2.50
2023-07-06T00:53:07.818Z,2.53
2023-07-06T00:55:37.665Z,2.55
2023-07-06T00:58:08.601Z,2.50
2023-07-06T01:00:37.007Z,3.20
2023-07-06T01:03:05.154Z,2.88
2023-07-06T01:05:33.253Z,2.70
2023-07-06T01:08:04.825Z,2.55
2023-07-06T01:10:35.244Z,2.38
2023-07-06T01:13:03.398Z,2.72
2023-07-06T01:15:31.929Z,2.70
2023-07-06T01:18:01.226Z,2.80
2023-07-06T01:20:32.106Z,2.85
2023-07-06T01:23:33.451Z,2.50
2023-07-06T01:26:06.397Z,2.80
2023-07-06T01:28:46.491Z,2.88
2023-07-06T01:31:24.231Z,2.45
2023-07-06T01:33:53.688Z,2.60
2023-07-06T01:36:23.714Z,2.63
2023-07-06T01:38:51.787Z,3.10
2023-07-06T01:41:26.716Z,2.50
2023-07-06T01:43:54.762Z,3.13
2023-07-06T01:46:24.276Z,2.75
2023-07-06T01:48:52.393Z,3.13
2023-07-06T01:51:21.616Z,2.72
2023-07-06T01:53:51.098Z,2.63
2023-07-06T01:56:20.339Z,2.80
2023-07-06T01:58:49.820Z,3.08
2023-07-06T02:01:18.762Z,2.78
2023-07-06T02:03:48.191Z,3.05
2023-07-06T02:06:18.380Z,2.80
2023-07-06T02:08:47.098Z,2.83
2023-07-06T02:11:16.031Z,3.17
2023-07-06T02:13:44.087Z,2.83
2023-07-06T02:16:12.169Z,2.90
2023-07-06T02:18:41.090Z,2.65
2023-07-06T02:21:10.592Z,2.97
2023-07-06T02:23:38.664Z,3.05
2023-07-06T02:26:06.766Z,3.33
2023-07-06T02:28:36.165Z,3.08
2023-07-06T02:31:06.165Z,3.25
2023-07-06T02:33:35.247Z,3.33
2023-07-06T02:36:03.226Z,3.17
2023-07-06T02:38:32.647Z,2.70
2023-07-06T02:41:02.231Z,3.22
2023-07-06T02:43:30.366Z,2.97
2023-07-06T02:45:58.744Z,3.22
2023-07-06T02:48:27.205Z,3.00
2023-07-06T02:50:55.210Z,3.20
2023-07-06T02:53:23.172Z,3.10
2023-07-06T02:55:52.918Z,3.22
2023-07-06T02:58:21.106Z,3.03
2023-07-06T03:00:51.354Z,3.25
2023-07-06T03:03:19.426Z,3.13
2023-07-06T03:05:47.716Z,3.45
2023-07-06T03:08:16.518Z,3.70
2023-07-06T03:10:45.400Z,3.78
2023-07-06T03:13:15.411Z,3.45
2023-07-06T03:15:43.634Z,3.10
2023-07-06T03:18:11.758Z,3.03
2023-07-06T03:20:42.010Z,3.00
2023-07-06T03:23:10.201Z,3.17
2023-07-06T03:25:38.306Z,3.45
2023-07-06T03:28:06.328Z,3.10
2023-07-06T03:30:35.678Z,2.75
2023-07-06T03:33:04.261Z,3.10
2023-07-06T03:35:32.282Z,3.20
2023-07-06T03:38:00.742Z,3.10
2023-07-06T03:40:28.900Z,3.30
2023-07-06T03:42:57.499Z,3.60
2023-07-06T03:45:25.630Z,3.00
2023-07-06T03:47:55.151Z,3.17
2023-07-06T03:50:23.292Z,3.20
2023-07-06T03:52:51.363Z,3.00
2023-07-06T03:55:20.700Z,2.72
2023-07-06T03:58:03.007Z,3.00
2023-07-06T04:00:32.939Z,3.17
2023-07-06T04:03:04.480Z,2.55
2023-07-06T04:05:33.283Z,3.30
2023-07-06T04:08:05.109Z,2.88
2023-07-06T04:10:33.786Z,2.90
2023-07-06T04:13:01.906Z,3.30
2023-07-06T04:15:32.022Z,3.22
2023-07-06T04:18:00.129Z,2.83
2023-07-06T04:20:30.074Z,2.97
2023-07-06T04:22:58.508Z,3.00
2023-07-06T04:25:30.400Z,2.70
2023-07-06T04:27:58.835Z,2.90
2023-07-06T04:30:28.966Z,3.00
2023-07-06T04:32:57.190Z,2.92
2023-07-06T04:35:25.261Z,3.13
2023-07-06T04:37:54.688Z,2.78
2023-07-06T04:40:22.964Z,2.97
2023-07-06T04:42:51.807Z,2.97
2023-07-06T04:45:19.863Z,2.72
2023-07-06T04:47:48.611Z,2.47
2023-07-06T04:50:18.391Z,3.03
2023-07-06T04:52:47.017Z,2.75
2023-07-06T04:55:17.988Z,2.38
2023-07-06T04:57:47.296Z,3.20
2023-07-06T05:00:25.526Z,2.97
2023-07-06T05:02:53.911Z,2.92
2023-07-06T05:05:22.702Z,2.95
2023-07-06T05:07:51.732Z,2.72
2023-07-06T05:10:22.105Z,2.67
2023-07-06T05:12:50.183Z,2.58
2023-07-06T05:15:18.318Z,3.00
2023-07-06T05:17:46.412Z,2.67
2023-07-06T05:20:15.551Z,2.75
2023-07-06T05:22:43.668Z,2.58
2023-07-06T05:25:11.767Z,3.05
2023-07-06T05:27:41.267Z,2.47
2023-07-06T05:30:09.596Z,2.53
2023-07-06T05:32:37.607Z,2.70
2023-07-06T05:35:05.931Z,2.78
2023-07-06T05:37:36.297Z,2.30
2023-07-06T05:40:05.213Z,3.05
2023-07-06T05:42:33.378Z,2.45
2023-07-06T05:45:02.956Z,3.00
2023-07-06T05:47:31.004Z,2.50
2023-07-06T05:49:58.978Z,2.75
2023-07-06T05:52:27.839Z,2.33
2023-07-06T05:54:55.968Z,2.70
2023-07-06T05:57:23.933Z,2.78
2023-07-06T05:59:52.488Z,3.33
2023-07-06T06:02:23.354Z,3.20
2023-07-06T06:04:52.520Z,2.72
2023-07-06T06:07:20.844Z,2.38
2023-07-06T06:09:49.383Z,2.53
2023-07-06T06:12:20.408Z,2.88
2023-07-06T06:14:49.067Z,2.70
2023-07-06T06:17:17.380Z,3.08
2023-07-06T06:19:47.290Z,2.60
2023-07-06T06:22:15.752Z,2.53
2023-07-06T06:24:43.954Z,2.97
2023-07-06T06:27:12.074Z,2.63
2023-07-06T06:29:40.551Z,2.85
2023-07-06T06:32:10.167Z,2.88
2023-07-06T06:34:38.284Z,2.70
2023-07-06T06:37:10.682Z,2.50
2023-07-06T06:39:39.542Z,2.80
2023-07-06T06:42:08.529Z,2.80
2023-07-06T06:44:36.586Z,2.95
2023-07-06T06:47:05.641Z,2.95
2023-07-06T06:49:34.344Z,3.10
2023-07-06T06:52:03.246Z,2.95
2023-07-06T06:54:32.906Z,3.13
2023-07-06T06:57:00.893Z,3.20
2023-07-06T06:59:29.895Z,3.05
2023-07-06T07:02:03.089Z,3.38
2023-07-06T07:04:31.748Z,3.33
2023-07-06T07:07:04.341Z,3.40
2023-07-06T07:09:33.719Z,3.67
2023-07-06T07:12:01.747Z,3.20
2023-07-06T07:14:29.957Z,3.80
2023-07-06T07:16:58.015Z,3.78
2023-07-06T07:19:26.017Z,3.80
2023-07-06T07:21:53.977Z,3.92
2023-07-06T07:24:22.071Z,4.30
2023-07-06T07:26:51.465Z,4.32
2023-07-06T07:29:21.073Z,4.18
2023-07-06T07:31:51.197Z,4.55
2023-07-06T07:34:19.545Z,3.85
2023-07-06T07:36:47.866Z,4.30
2023-07-06T07:39:17.061Z,5.07
2023-07-06T07:41:46.964Z,4.15
2023-07-06T07:44:17.070Z,4.15
2023-07-06T07:46:46.192Z,5.38
2023-07-06T07:49:14.403Z,4.53
2023-07-06T07:51:42.399Z,4.40
2023-07-06T07:54:10.698Z,4.65
2023-07-06T07:56:38.712Z,5.20
2023-07-06T07:59:06.691Z,4.43
2023-07-06T08:01:36.510Z,4.95
2023-07-06T08:04:04.616Z,5.80
2023-07-06T08:06:32.634Z,5.75
2023-07-06T08:09:03.920Z,6.80
2023-07-06T08:11:32.924Z,6.57
2023-07-06T08:14:00.956Z,6.80
2023-07-06T08:16:30.068Z,7.03
2023-07-06T08:19:09.843Z,6.97
2023-07-06T08:22:04.727Z,8.25
2023-07-06T08:24:37.731Z,9.52
2023-07-06T08:27:06.189Z,7.72
2023-07-06T08:29:34.210Z,9.18
2023-07-06T08:32:04.748Z,9.27
2023-07-06T08:34:34.128Z,8.70
2023-07-06T08:37:02.157Z,8.75
2023-07-06T08:39:30.207Z,8.50
2023-07-06T08:41:59.126Z,8.63
2023-07-06T08:44:27.520Z,8.52
2023-07-06T08:46:57.165Z,8.23
2023-07-06T08:49:30.008Z,8.25
2023-07-06T08:52:04.306Z,8.68
2023-07-06T08:54:32.934Z,9.70
2023-07-06T08:57:01.705Z,9.20
2023-07-06T08:59:35.505Z,7.65
2023-07-06T09:02:09.189Z,8.07
2023-07-06T09:04:37.268Z,8.50
2023-07-06T09:07:07.862Z,7.82
2023-07-06T09:09:39.631Z,8.23
2023-07-06T09:12:11.197Z,8.13
2023-07-06T09:14:39.175Z,8.40
2023-07-06T09:17:07.522Z,8.02
2023-07-06T09:19:35.738Z,8.55
2023-07-06T09:22:03.963Z,8.63
2023-07-06T09:24:33.391Z,9.70
2023-07-06T09:27:01.609Z,7.78
2023-07-06T09:29:30.887Z,7.75
2023-07-06T09:32:09.318Z,8.27
2023-07-06T09:34:37.357Z,7.60
2023-07-06T09:37:05.606Z,7.68
2023-07-06T09:39:37.672Z,6.72
2023-07-06T09:42:05.961Z,7.55
2023-07-06T09:44:34.839Z,6.63
2023-07-06T09:47:04.597Z,8.35
2023-07-06T09:49:33.697Z,6.93
2023-07-06T09:52:02.313Z,7.63
2023-07-06T09:54:32.945Z,6.57
2023-07-06T09:57:02.585Z,7.20
2023-07-06T09:59:30.509Z,6.95
2023-07-06T10:01:59.475Z,6.85
2023-07-06T10:04:41.253Z,7.03
2023-07-06T10:07:12.688Z,6.60
2023-07-06T10:09:41.256Z,6.40
2023-07-06T10:12:15.852Z,6.65
2023-07-06T10:14:45.151Z,6.20
2023-07-06T10:17:19.553Z,6.15
2023-07-06T10:19:50.498Z,6.90
2023-07-06T10:22:21.969Z,6.45
2023-07-06T10:24:53.900Z,6.22
2023-07-06T10:27:25.701Z,6.80
2023-07-06T10:29:55.985Z,5.50
2023-07-06T10:32:26.337Z,6.10
2023-07-06T10:34:56.019Z,5.75
2023-07-06T10:37:25.259Z,5.65
2023-07-06T10:40:06.599Z,5.65
2023-07-06T10:42:36.585Z,5.60
2023-07-06T10:45:04.944Z,6.07
2023-07-06T10:47:36.186Z,6.63
2023-07-06T10:50:05.032Z,6.05
2023-07-06T10:52:33.457Z,6.25
2023-07-06T10:55:01.865Z,5.22
2023-07-06T10:57:35.895Z,5.93
2023-07-06T11:00:06.670Z,5.85
2023-07-06T11:02:39.053Z,5.82
2023-07-06T11:05:10.529Z,5.22
2023-07-06T11:07:43.539Z,5.45
2023-07-06T11:10:20.675Z,5.55
2023-07-06T11:12:58.762Z,5.07
2023-07-06T11:15:27.577Z,5.57
2023-07-06T11:17:55.933Z,5.65
2023-07-06T11:20:24.761Z,5.22
2023-07-06T11:22:54.182Z,5.10
2023-07-06T11:25:22.262Z,5.72
2023-07-06T11:27:51.704Z,5.10
2023-07-06T11:30:29.500Z,4.78
2023-07-06T11:33:09.350Z,5.22
2023-07-06T11:35:41.059Z,5.63
2023-07-06T11:38:15.010Z,5.43
2023-07-06T11:40:46.826Z,4.55
2023-07-06T11:43:21.503Z,5.22
2023-07-06T11:45:52.046Z,5.68
2023-07-06T11:48:27.389Z,4.63
2023-07-06T11:50:56.099Z,5.07
2023-07-06T11:53:43.670Z,5.15
2023-07-06T11:56:20.835Z,6.47
2023-07-06T11:58:57.061Z,5.07
2023-07-06T12:01:41.736Z,4.90
2023-07-06T12:04:14.215Z,4.97
2023-07-06T12:06:42.330Z,5.68
2023-07-06T12:09:10.336Z,5.45
2023-07-06T12:11:39.773Z,5.38
2023-07-06T12:14:07.857Z,4.75
2023-07-06T12:16:41.395Z,4.82
2023-07-06T12:19:10.963Z,4.68
2023-07-06T12:21:41.447Z,4.85
2023-07-06T12:24:12.985Z,4.85
2023-07-06T12:26:43.794Z,5.15
2023-07-06T12:29:12.118Z,4.25
2023-07-06T12:31:42.130Z,4.70
2023-07-06T12:34:11.817Z,4.40
2023-07-06T12:36:42.769Z,4.40
2023-07-06T12:39:10.833Z,4.15
2023-07-06T12:41:39.043Z,4.13
2023-07-06T12:44:07.887Z,4.30
2023-07-06T12:46:36.286Z,4.22
2023-07-06T12:49:07.335Z,4.20
2023-07-06T12:51:39.600Z,4.07
2023-07-06T12:54:07.674Z,4.05
2023-07-06T12:56:36.576Z,4.30
2023-07-06T12:59:04.714Z,4.00
2023-07-06T13:01:33.944Z,4.03
2023-07-06T13:04:02.961Z,4.20
2023-07-06T13:06:32.905Z,4.43
2023-07-06T13:09:01.920Z,4.15
2023-07-06T13:11:30.130Z,3.85
2023-07-06T13:13:58.457Z,3.92
2023-07-06T13:16:26.530Z,3.85
2023-07-06T13:18:54.547Z,4.38
2023-07-06T13:21:24.375Z,3.85
2023-07-06T13:23:57.355Z,4.00
2023-07-06T13:26:27.481Z,4.05
2023-07-06T13:28:55.645Z,4.00
2023-07-06T13:31:28.008Z,3.90
2023-07-06T13:33:58.253Z,3.53
2023-07-06T13:36:26.901Z,4.03
2023-07-06T13:38:56.292Z,4.47
2023-07-06T13:41:25.525Z,4.43
2023-07-06T13:43:53.674Z,4.18
2023-07-06T13:46:21.824Z,3.95
2023-07-06T13:48:49.958Z,4.68
2023-07-06T13:51:18.036Z,4.40
2023-07-06T13:53:50.628Z,4.45
2023-07-06T13:56:20.693Z,5.20
2023-07-06T13:58:48.747Z,4.93
2023-07-06T14:01:17.463Z,5.18
2023-07-06T14:03:45.806Z,5.00
2023-07-06T14:06:13.980Z,4.93
2023-07-06T14:08:42.418Z,5.22
2023-07-06T14:11:10.916Z,4.75
2023-07-06T14:13:41.160Z,4.53
2023-07-06T14:16:11.827Z,4.75
2023-07-06T14:18:39.905Z,4.60
2023-07-06T14:21:07.938Z,4.47
2023-07-06T14:23:36.355Z,4.28
2023-07-06T14:26:05.136Z,3.88
2023-07-06T14:28:33.306Z,4.18
2023-07-06T14:31:14.373Z,4.47
2023-07-06T14:33:42.705Z,4.00
2023-07-06T14:36:10.756Z,4.32
2023-07-06T14:38:38.821Z,3.80
2023-07-06T14:41:08.156Z,3.95
2023-07-06T14:43:36.179Z,3.85
2023-07-06T14:46:04.593Z,4.10
2023-07-06T14:48:34.094Z,4.05
2023-07-06T14:51:05.880Z,4.28
2023-07-06T14:53:34.473Z,4.10
2023-07-06T14:56:02.533Z,4.60
2023-07-06T14:58:30.612Z,3.95
2023-07-06T15:00:58.773Z,4.35
2023-07-06T15:03:26.910Z,4.47
2023-07-06T15:05:56.516Z,3.78
2023-07-06T15:08:24.732Z,4.13
2023-07-06T15:10:53.360Z,6.30
2023-07-06T15:13:21.463Z,4.13
2023-07-06T15:15:49.675Z,3.65
2023-07-06T15:18:18.355Z,3.95
2023-07-06T15:20:46.380Z,4.43
2023-07-06T15:23:15.735Z,4.47
2023-07-06T15:25:43.697Z,4.80
2023-07-06T15:28:11.760Z,4.80
2023-07-06T15:30:39.810Z,4.47
2023-07-06T15:33:07.910Z,3.88
2023-07-06T15:35:35.907Z,4.72
2023-07-06T15:38:05.310Z,15.60
2023-07-06T15:40:34.935Z,25.27
2023-07-06T15:43:03.101Z,15.98
2023-07-06T15:45:31.220Z,15.30
2023-07-06T15:47:59.607Z,16.10
2023-07-06T15:50:28.116Z,14.52
2023-07-06T15:52:56.251Z,14.38
2023-07-06T15:55:24.313Z,13.90
2023-07-06T15:57:53.689Z,13.40
2023-07-06T16:00:21.778Z,11.55
2023-07-06T16:02:49.983Z,10.77
2023-07-06T16:05:18.019Z,9.90
2023-07-06T16:07:46.374Z,9.32
2023-07-06T16:10:14.315Z,8.90
2023-07-06T16:12:42.301Z,7.90
2023-07-06T16:15:12.043Z,7.70
2023-07-06T16:17:40.055Z,7.13
2023-07-06T16:20:09.202Z,8.40
2023-07-06T16:22:37.473Z,7.03
2023-07-06T16:25:05.616Z,6.68
2023-07-06T16:27:33.719Z,6.63
2023-07-06T16:30:01.734Z,6.30
2023-07-06T16:32:31.108Z,5.70
2023-07-06T16:34:59.391Z,5.70
2023-07-06T16:37:27.438Z,5.05
2023-07-06T16:39:55.512Z,5.10
2023-07-06T16:42:23.589Z,4.40
2023-07-06T16:44:51.611Z,4.95
2023-07-06T16:47:19.599Z,4.70
2023-07-06T16:49:48.983Z,3.97
2023-07-06T16:52:17.074Z,5.07
2023-07-06T16:54:45.086Z,3.55
2023-07-06T16:57:13.282Z,3.38
2023-07-06T16:59:41.279Z,3.60
2023-07-06T17:02:09.455Z,3.30
2023-07-06T17:04:37.583Z,3.08
2023-07-06T17:07:07.223Z,3.10
2023-07-06T17:09:35.690Z,3.08
2023-07-06T17:12:03.672Z,3.28
2023-07-06T17:14:31.682Z,3.25
2023-07-06T17:16:59.819Z,2.97
2023-07-06T17:19:27.929Z,3.28
2023-07-06T17:21:55.970Z,3.03
2023-07-06T17:24:25.524Z,2.70
2023-07-06T17:26:53.592Z,2.30
2023-07-06T17:29:21.596Z,3.15
2023-07-06T17:31:49.640Z,2.38
2023-07-06T17:34:17.758Z,2.80
2023-07-06T17:36:45.785Z,3.00
2023-07-06T17:39:13.863Z,3.10
2023-07-06T17:41:43.297Z,2.95
2023-07-06T17:44:11.741Z,3.22
2023-07-06T17:46:39.789Z,2.60
2023-07-06T17:49:08.443Z,2.40
2023-07-06T17:51:36.780Z,2.70
2023-07-06T17:54:04.835Z,2.92
2023-07-06T17:56:32.829Z,2.28
2023-07-06T17:59:02.319Z,3.00
2023-07-06T18:01:30.288Z,2.75
2023-07-06T18:03:58.422Z,3.20
2023-07-06T18:06:26.529Z,2.05
2023-07-06T18:08:54.627Z,3.10
2023-07-06T18:11:22.764Z,3.40
2023-07-06T18:13:50.758Z,3.55
2023-07-06T18:16:20.123Z,3.03
2023-07-06T18:18:48.081Z,2.70
2023-07-06T18:21:16.312Z,2.55
2023-07-06T18:23:44.400Z,2.70
2023-07-06T18:26:13.291Z,2.50
2023-07-06T18:28:41.345Z,3.03
2023-07-06T18:31:09.369Z,2.58
2023-07-06T18:33:38.744Z,2.40
2023-07-06T18:36:06.918Z,2.80
2023-07-06T18:38:34.902Z,2.33
2023-07-06T18:41:03.352Z,2.38
2023-07-06T18:43:31.352Z,2.45
2023-07-06T18:46:02.051Z,2.28
2023-07-06T18:48:32.734Z,2.55
2023-07-06T18:51:02.049Z,2.53
2023-07-06T18:53:41.166Z,2.35
2023-07-06T18:56:12.888Z,2.67
2023-07-06T18:58:40.775Z,2.88
2023-07-06T19:01:09.755Z,2.40
2023-07-06T19:03:37.881Z,2.33
2023-07-06T19:06:16.373Z,2.17
2023-07-06T19:08:46.123Z,2.13
2023-07-06T19:11:14.737Z,2.35
2023-07-06T19:13:44.148Z,2.50
2023-07-06T19:16:12.181Z,2.35
2023-07-06T19:18:40.554Z,2.75
2023-07-06T19:21:13.650Z,2.58
2023-07-06T19:23:41.703Z,2.33
2023-07-06T19:26:09.702Z,2.50
2023-07-06T19:28:37.763Z,2.45
2023-07-06T19:31:05.695Z,2.40
2023-07-06T19:33:33.676Z,2.88
2023-07-06T19:36:01.646Z,2.45
2023-07-06T19:38:30.913Z,2.50
2023-07-06T19:40:58.873Z,2.40
2023-07-06T19:43:26.908Z,2.22
2023-07-06T19:45:59.506Z,2.22
2023-07-06T19:48:32.713Z,2.30
2023-07-06T19:51:00.838Z,2.38
2023-07-06T19:53:29.034Z,2.58
2023-07-06T19:55:58.700Z,2.08
2023-07-06T19:58:26.847Z,2.53
2023-07-06T20:00:56.028Z,2.50
2023-07-06T20:03:24.096Z,2.30
2023-07-06T20:05:52.082Z,2.38
2023-07-06T20:08:21.275Z,2.10
2023-07-06T20:10:53.697Z,3.05
2023-07-06T20:13:22.958Z,2.30
2023-07-06T20:15:50.922Z,2.17
2023-07-06T20:18:18.860Z,2.22
2023-07-06T20:20:48.041Z,2.20
2023-07-06T20:23:16.012Z,2.50
2023-07-06T20:25:44.097Z,2.20
2023-07-06T20:28:12.023Z,2.40
2023-07-06T20:30:42.975Z,2.00
2023-07-06T20:33:11.863Z,2.30
2023-07-06T20:35:40.112Z,2.13
2023-07-06T20:38:08.954Z,2.53
2023-07-06T20:40:36.908Z,2.53
2023-07-06T20:43:04.845Z,2.28
2023-07-06T20:45:35.646Z,2.13
2023-07-06T20:48:05.998Z,2.25
2023-07-06T20:50:33.947Z,2.50
2023-07-06T20:53:01.820Z,2.88
2023-07-06T20:55:31.292Z,2.10
2023-07-06T20:58:00.313Z,2.58
2023-07-06T21:00:28.496Z,2.90
2023-07-06T21:02:57.207Z,2.92
2023-07-06T21:05:26.541Z,2.35
2023-07-06T21:07:54.498Z,2.70
2023-07-06T21:10:22.672Z,2.53
2023-07-06T21:12:50.590Z,2.40
2023-07-06T21:15:18.703Z,2.40
2023-07-06T21:17:46.699Z,2.60
2023-07-06T21:20:15.985Z,2.20
2023-07-06T21:22:45.408Z,2.97
2023-07-06T21:25:13.316Z,3.20
2023-07-06T21:27:41.202Z,2.80
2023-07-06T21:30:09.554Z,2.38
2023-07-06T21:32:37.657Z,2.90
2023-07-06T21:35:06.018Z,2.40
2023-07-06T21:37:34.052Z,2.42
2023-07-06T21:40:03.540Z,2.50
2023-07-06T21:42:31.471Z,2.63
2023-07-06T21:44:59.415Z,2.70
2023-07-06T21:47:27.408Z,2.67
2023-07-06T21:49:55.437Z,2.33
2023-07-06T21:52:23.377Z,2.80
2023-07-06T21:54:51.296Z,3.50
2023-07-06T21:57:20.535Z,3.08
2023-07-06T21:59:48.443Z,2.80
2023-07-06T22:02:16.564Z,2.15
2023-07-06T22:04:44.520Z,2.50
2023-07-06T22:07:12.554Z,3.15
2023-07-06T22:09:42.296Z,3.13
2023-07-06T22:12:10.430Z,2.75
2023-07-06T22:14:39.725Z,3.15
2023-07-06T22:17:07.749Z,2.70
2023-07-06T22:19:35.678Z,3.45
2023-07-06T22:22:03.778Z,2.80
2023-07-06T22:24:31.835Z,2.75
2023-07-06T22:26:59.812Z,3.28
2023-07-06T22:29:27.809Z,3.10
2023-07-06T22:31:57.203Z,3.00
2023-07-06T22:34:25.166Z,2.83
2023-07-06T22:36:53.063Z,2.80
2023-07-06T22:39:21.045Z,2.90
2023-07-06T22:41:48.997Z,2.85
2023-07-06T22:44:16.845Z,2.95
2023-07-06T22:46:44.742Z,3.13
2023-07-06T22:49:16.517Z,3.17
2023-07-06T22:51:44.642Z,2.50
2023-07-06T22:54:12.530Z,2.70
2023-07-06T22:56:40.504Z,2.53
2023-07-06T22:59:08.426Z,2.90
2023-07-06T23:01:36.433Z,2.40
2023-07-06T23:04:04.643Z,2.53
2023-07-06T23:06:34.021Z,2.63
2023-07-06T23:09:02.237Z,2.67
2023-07-06T23:11:31.156Z,2.80
2023-07-06T23:13:59.115Z,2.33
2023-07-06T23:16:27.360Z,2.63
2023-07-06T23:18:55.402Z,2.55
2023-07-06T23:21:23.296Z,2.47
2023-07-06T23:23:52.510Z,2.17
2023-07-06T23:26:24.357Z,2.30
2023-07-06T23:28:52.852Z,2.22
2023-07-06T23:31:29.115Z,2.35
2023-07-06T23:33:58.688Z,2.60
2023-07-06T23:36:26.866Z,2.47
2023-07-06T23:39:00.226Z,2.30
2023-07-06T23:41:28.429Z,2.20
2023-07-06T23:43:56.712Z,2.47
2023-07-06T23:46:27.164Z,2.40
2023-07-06T23:48:55.092Z,2.60
2023-07-06T23:51:23.667Z,2.42
2023-07-06T23:53:53.419Z,2.47
2023-07-06T23:56:22.856Z,2.38
2023-07-06T23:58:51.032Z,2.50
